Time;durP1;ratioP1;P1;durP2;ratioP2;P2;SDS_P1;SDS_P2;PMS_P1;PMS_P2;Temp;Humidity;BMP_temperature;BMP_pressure;BME280_temperature;BME280_humidity;BME280_pressure;Samples;Min_cycle;Max_cycle;Signal;HPM_P1;HPM_P2
2022/04/01 00:01:19;;;;;;;25.87;17.20;;;;;;;8.19;71.30;98798.44;5110800;28;20233;-64
2022/04/01 00:03:47;;;;;;;28.00;18.17;;;;;;;8.33;71.40;98799.56;5111252;27;20285;-65
2022/04/01 00:06:16;;;;;;;26.50;17.57;;;;;;;8.01;72.44;98806.59;5114807;27;20227;-64
2022/04/01 00:08:44;;;;;;;23.40;17.17;;;;;;;8.31;71.22;98807.66;5110985;28;20239;-64
2022/04/01 00:11:11;;;;;;;29.23;18.67;;;;;;;8.34;70.99;98799.41;5110802;28;20212;-64
2022/04/01 00:13:48;;;;;;;25.50;16.53;;;;;;;8.38;70.75;98807.78;5110584;28;20208;-64
2022/04/01 00:16:16;;;;;;;25.23;18.33;;;;;;;8.43;70.59;98806.28;5111151;28;20294;-65
2022/04/01 00:18:44;;;;;;;24.00;17.63;;;;;;;8.42;70.74;98809.91;5094991;28;20239;-65
2022/04/01 00:21:11;;;;;;;27.23;18.63;;;;;;;8.40;71.00;98806.63;5090119;28;20308;-64
2022/04/01 00:23:40;;;;;;;25.37;18.20;;;;;;;8.46;70.64;98811.19;5090322;28;20295;-63
2022/04/01 00:26:09;;;;;;;25.13;17.73;;;;;;;8.49;70.56;98807.38;5090482;28;20223;-65
2022/04/01 00:28:36;;;;;;;24.23;18.53;;;;;;;8.44;70.56;98810.56;5099779;28;20208;-63
2022/04/01 00:31:04;;;;;;;23.27;18.10;;;;;;;8.48;70.32;98809.19;5111640;28;20241;-64
2022/04/01 00:33:32;;;;;;;24.37;17.03;;;;;;;8.44;70.15;98807.91;5111487;28;20280;-65
2022/04/01 00:36:00;;;;;;;23.30;16.30;;;;;;;8.43;69.98;98806.28;5110575;28;20239;-65
2022/04/01 00:38:28;;;;;;;23.50;17.43;;;;;;;8.33;70.12;98804.84;5111861;27;20574;-65
2022/04/01 00:40:58;;;;;;;23.10;16.73;;;;;;;8.39;69.97;98804.97;5110835;28;20221;-64
2022/04/01 00:43:30;;;;;;;23.87;16.80;;;;;;;8.43;69.92;98811.56;5110918;28;20294;-65
2022/04/01 00:45:58;;;;;;;25.33;17.93;;;;;;;8.39;70.12;98799.69;5110683;28;20647;-65
2022/04/01 00:48:26;;;;;;;23.93;17.20;;;;;;;8.41;70.00;98808.25;5109869;28;20302;-65
2022/04/01 00:50:55;;;;;;;24.37;17.03;;;;;;;8.40;70.39;98811.06;5109860;28;20295;-65
2022/04/01 00:53:23;;;;;;;24.37;16.67;;;;;;;8.43;69.99;98808.09;5109799;28;20212;-63
2022/04/01 00:55:51;;;;;;;23.90;16.67;;;;;;;8.41;69.94;98807.44;5110211;28;20207;-64
2022/04/01 00:58:20;;;;;;;22.03;16.97;;;;;;;8.25;69.87;98803.88;5110172;28;20284;-64
2022/04/01 01:00:48;;;;;;;22.07;16.97;;;;;;;8.38;69.84;98808.59;5110136;28;20273;-64
2022/04/01 01:03:16;;;;;;;25.40;18.07;;;;;;;8.08;71.26;98809.41;5110181;28;20231;-64
2022/04/01 01:05:44;;;;;;;24.30;17.50;;;;;;;8.32;70.53;98804.03;5099386;28;20664;-65
2022/04/01 01:08:13;;;;;;;22.40;16.83;;;;;;;8.34;69.88;98804.69;5094647;28;20656;-64
2022/04/01 01:10:41;;;;;;;21.83;16.83;;;;;;;7.89;71.11;98800.09;5117104;27;20302;-65
2022/04/01 01:13:17;;;;;;;22.07;16.47;;;;;;;8.08;70.72;98798.84;5098513;28;20303;-65
2022/04/01 01:15:48;;;;;;;20.83;17.13;;;;;;;8.24;69.86;98807.50;5104538;28;20234;-64
2022/04/01 01:18:17;;;;;;;22.07;16.07;;;;;;;7.99;70.69;98798.06;5110052;28;20204;-64
2022/04/01 01:20:44;;;;;;;23.73;16.87;;;;;;;8.20;70.88;98798.28;5109191;28;20317;-65
2022/04/01 01:23:14;;;;;;;22.73;17.83;;;;;;;8.17;70.41;98801.28;5109557;28;20221;-66
2022/04/01 01:25:45;;;;;;;22.60;16.87;;;;;;;8.20;69.83;98797.44;5110241;28;20572;-64
2022/04/01 01:28:13;;;;;;;23.87;16.87;;;;;;;8.20;69.96;98798.28;5123602;27;20206;-64
2022/04/01 01:30:41;;;;;;;21.20;16.30;;;;;;;8.22;69.04;98800.75;5108834;28;20302;-65
2022/04/01 01:33:09;;;;;;;21.13;15.53;;;;;;;7.99;70.66;98799.88;5110007;28;20307;-65
2022/04/01 01:35:37;;;;;;;20.47;15.33;;;;;;;8.19;69.03;98806.34;5109351;28;20210;-64
2022/04/01 01:38:05;;;;;;;19.87;14.63;;;;;;;8.13;68.87;98793.84;5109673;28;20238;-66
2022/04/01 01:40:33;;;;;;;19.30;14.60;;;;;;;8.05;69.34;98800.00;5108921;28;20677;-65
2022/04/01 01:43:02;;;;;;;17.60;13.93;;;;;;;8.00;68.63;98798.88;5108963;28;20291;-63
2022/04/01 01:45:30;;;;;;;18.23;13.57;;;;;;;8.13;68.37;98799.13;5109583;28;20207;-64
2022/04/01 01:47:57;;;;;;;18.37;13.97;;;;;;;8.08;68.18;98790.94;5110337;28;20212;-63
2022/04/01 01:55:55;;;;;;;19.20;14.57;;;;;;;7.94;68.50;98793.28;5067447;28;20218;-65
2022/04/01 01:58:24;;;;;;;20.10;14.73;;;;;;;8.02;68.20;98789.78;5109914;28;20195;-63
2022/04/01 02:00:55;;;;;;;17.73;13.43;;;;;;;7.83;68.52;98791.00;5109462;28;20233;-65
2022/04/01 02:03:22;;;;;;;20.33;14.50;;;;;;;8.00;68.16;98780.41;5109743;28;20668;-65
2022/04/01 02:05:51;;;;;;;19.97;14.40;;;;;;;8.02;68.09;98778.41;5109995;28;20574;-65
2022/04/01 02:08:18;;;;;;;19.83;15.53;;;;;;;7.97;68.57;98778.09;5109830;28;20285;-63
2022/04/01 02:10:46;;;;;;;18.17;13.97;;;;;;;8.03;68.32;98782.69;5102565;28;20675;-65
2022/04/01 02:13:14;;;;;;;18.93;14.43;;;;;;;7.97;68.05;98781.56;5099923;28;20621;-65
2022/04/01 02:15:43;;;;;;;20.80;15.37;;;;;;;7.86;68.47;98777.50;5109655;28;20330;-64
2022/04/01 02:18:11;;;;;;;18.67;14.23;;;;;;;7.87;68.18;98780.94;5109912;28;20643;-65
2022/04/01 02:20:40;;;;;;;19.80;15.37;;;;;;;7.78;68.01;98785.44;5108500;28;20238;-65
2022/04/01 02:23:07;;;;;;;21.43;14.80;;;;;;;7.82;67.76;98792.03;5111930;28;20253;-65
2022/04/01 02:25:36;;;;;;;18.10;14.10;;;;;;;7.83;67.51;98788.38;5113220;28;20206;-65
2022/04/01 02:28:18;;;;;;;18.37;14.07;;;;;;;7.90;67.19;98777.97;5113466;28;20645;-65
2022/04/01 02:30:48;;;;;;;19.83;14.47;;;;;;;7.63;67.64;98787.16;5112457;28;20206;-65
2022/04/01 02:33:15;;;;;;;19.07;15.00;;;;;;;7.78;67.67;98790.72;5113443;28;20206;-64
2022/04/01 02:35:43;;;;;;;21.43;15.27;;;;;;;7.78;67.40;98790.72;5113711;28;20518;-64
2022/04/01 02:38:11;;;;;;;19.23;14.43;;;;;;;7.56;68.36;98792.25;5112985;28;20254;-65
2022/04/01 02:40:39;;;;;;;19.87;15.37;;;;;;;7.77;67.83;98796.97;5115354;27;20685;-64
2022/04/01 02:43:06;;;;;;;19.83;15.33;;;;;;;7.72;67.80;98794.06;5112819;28;20214;-65
2022/04/01 02:45:34;;;;;;;20.53;15.73;;;;;;;7.50;68.81;98800.03;5104923;28;20236;-65
2022/04/01 02:48:14;;;;;;;20.17;15.40;;;;;;;7.71;68.29;98799.50;5095897;27;20527;-65
2022/04/01 02:50:43;;;;;;;20.47;15.23;;;;;;;7.71;68.24;98800.31;5132995;27;20659;-64
2022/04/01 02:53:10;;;;;;;18.87;14.80;;;;;;;7.77;68.01;98804.06;5133950;27;20254;-64
2022/04/01 02:55:38;;;;;;;20.37;15.10;;;;;;;7.74;67.65;98809.72;5133899;27;20285;-65
2022/04/01 02:58:06;;;;;;;20.83;15.13;;;;;;;7.76;67.80;98807.72;5127737;27;20674;-65
2022/04/01 03:00:35;;;;;;;21.13;15.30;;;;;;;7.81;67.54;98805.41;5112480;28;20744;-65
2022/04/01 03:03:06;;;;;;;18.53;14.60;;;;;;;7.81;67.24;98810.66;5112372;28;20298;-64
2022/04/01 03:05:35;;;;;;;18.60;14.97;;;;;;;7.79;67.50;98810.84;5109723;28;20699;-64
2022/04/01 03:08:04;;;;;;;21.10;15.83;;;;;;;7.78;67.01;98813.63;5109618;28;20672;-65
2022/04/01 03:10:32;;;;;;;20.97;15.30;;;;;;;7.81;66.72;98816.78;5112516;27;20218;-64
2022/04/01 03:13:00;;;;;;;20.27;15.10;;;;;;;7.85;67.12;98818.06;5111807;27;20314;-65
2022/04/01 03:15:29;;;;;;;22.50;16.00;;;;;;;7.85;66.96;98818.06;5100213;27;20206;-65
2022/04/01 03:17:57;;;;;;;19.93;15.93;;;;;;;7.83;67.56;98820.03;5112571;28;20571;-64
2022/04/01 03:20:29;;;;;;;20.63;15.23;;;;;;;7.66;67.53;98815.81;5111499;28;20273;-64
2022/04/01 03:22:57;;;;;;;20.27;14.90;;;;;;;7.68;67.00;98816.47;5112687;28;20190;-63
2022/04/01 03:25:32;;;;;;;21.23;15.50;;;;;;;7.66;68.21;98813.19;5112236;28;20257;-64
2022/04/01 03:28:02;;;;;;;23.70;15.40;;;;;;;7.76;67.96;98813.81;5107876;28;20613;-62
2022/04/01 03:30:30;;;;;;;19.53;15.00;;;;;;;7.72;67.55;98823.06;5091187;28;20290;-65
2022/04/01 03:32:58;;;;;;;20.57;15.40;;;;;;;7.81;67.18;98816.78;5091682;28;20294;-65
2022/04/01 03:35:27;;;;;;;19.30;15.30;;;;;;;7.82;66.98;98828.97;5091411;28;20616;-64
2022/04/01 03:38:05;;;;;;;20.33;15.70;;;;;;;7.64;67.15;98822.28;5091165;28;20340;-64
2022/04/01 03:40:38;;;;;;;19.93;15.23;;;;;;;7.76;67.20;98808.53;5091542;28;20667;-64
2022/04/01 03:43:06;;;;;;;19.37;13.47;;;;;;;7.79;67.20;98810.84;5105833;28;20731;-63
2022/04/01 03:45:35;;;;;;;19.73;14.50;;;;;;;7.79;66.17;98815.28;5103977;28;20300;-65
2022/04/01 03:48:07;;;;;;;18.43;13.10;;;;;;;7.69;66.58;98812.03;5113170;27;20436;-64
2022/04/01 03:50:40;;;;;;;19.93;13.60;;;;;;;7.72;66.84;98815.16;5111735;28;20212;-64
2022/04/01 03:53:09;;;;;;;18.70;13.73;;;;;;;7.77;66.39;98809.34;5111929;28;20194;-64
2022/04/01 03:55:39;;;;;;;17.37;13.67;;;;;;;7.71;66.09;98808.22;5111485;28;20300;-64
2022/04/01 03:58:08;;;;;;;16.33;13.30;;;;;;;7.74;66.05;98818.41;5111705;28;20287;-65
2022/04/01 04:00:38;;;;;;;18.17;13.10;;;;;;;7.76;66.31;98819.09;5110883;28;20223;-65
2022/04/01 04:03:08;;;;;;;17.80;13.77;;;;;;;7.71;66.48;98818.78;5106421;28;20213;-65
2022/04/01 04:05:39;;;;;;;18.13;13.20;;;;;;;7.75;66.53;98822.72;5111330;28;20289;-65
2022/04/01 04:08:10;;;;;;;18.20;13.77;;;;;;;7.75;67.05;98827.16;5111312;28;20787;-65
2022/04/01 04:10:39;;;;;;;17.63;14.07;;;;;;;7.73;66.95;98819.44;5110562;28;20189;-64
2022/04/01 04:13:07;;;;;;;17.83;12.93;;;;;;;7.59;66.68;98822.75;5111444;28;20667;-64
2022/04/01 04:15:41;;;;;;;20.23;14.27;;;;;;;7.56;66.61;98828.41;5111459;28;20206;-64
2022/04/01 04:18:12;;;;;;;17.50;12.63;;;;;;;7.69;66.82;98831.31;5118375;27;20208;-64
2022/04/01 04:20:54;;;;;;;15.97;12.57;;;;;;;7.72;66.43;98836.25;5110565;28;20704;-64
2022/04/01 04:23:26;;;;;;;17.97;13.23;;;;;;;7.73;66.21;98840.56;5111176;28;20207;-64
2022/04/01 04:26:11;;;;;;;18.93;13.17;;;;;;;7.55;66.83;98837.28;5111399;28;20190;-65
2022/04/01 04:28:41;;;;;;;19.53;13.70;;;;;;;7.67;66.09;98841.19;5100809;28;20205;-64
2022/04/01 04:31:10;;;;;;;15.73;12.37;;;;;;;7.43;66.33;98838.63;5090512;28;20208;-63
2022/04/01 04:33:44;;;;;;;18.83;14.00;;;;;;;7.48;66.67;98841.56;5090571;28;20288;-64
2022/04/01 04:36:24;;;;;;;17.50;13.17;;;;;;;7.62;66.74;98842.72;5090655;28;20305;-66
2022/04/01 04:39:03;;;;;;;20.77;13.80;;;;;;;7.57;66.89;98861.66;5099466;28;20339;-64
2022/04/01 04:41:32;;;;;;;18.67;14.50;;;;;;;7.66;66.36;98855.38;5101815;28;20242;-64
2022/04/01 04:44:00;;;;;;;18.23;14.07;;;;;;;7.63;66.50;98852.28;5110250;28;20652;-65
2022/04/01 04:46:30;;;;;;;17.13;13.17;;;;;;;7.66;65.96;98859.84;5107059;28;20206;-65
2022/04/01 04:48:59;;;;;;;17.70;13.40;;;;;;;7.62;66.19;98862.00;5113120;28;20204;-65
2022/04/01 04:51:28;;;;;;;18.90;13.87;;;;;;;7.61;66.60;98859.53;5109976;28;20202;-65
2022/04/01 04:53:59;;;;;;;19.97;13.83;;;;;;;7.62;66.39;98859.38;5109521;28;20303;-65
2022/04/01 04:56:38;;;;;;;18.13;12.77;;;;;;;7.61;66.48;98870.91;5111878;28;20205;-64
2022/04/01 04:59:07;;;;;;;17.50;13.70;;;;;;;7.62;66.45;98869.09;5106050;28;20237;-64
2022/04/01 05:01:39;;;;;;;19.73;14.13;;;;;;;7.50;66.42;98871.25;5109659;28;20347;-66
2022/04/01 05:04:25;;;;;;;17.97;13.73;;;;;;;7.58;66.20;98876.50;5109710;28;20208;-65
2022/04/01 05:07:08;;;;;;;19.20;14.60;;;;;;;7.59;66.48;98880.78;5109347;28;20203;-65
2022/04/01 05:09:41;;;;;;;18.17;14.00;;;;;;;7.66;66.51;98886.22;5108836;28;20203;-65
2022/04/01 05:12:25;;;;;;;19.43;14.23;;;;;;;7.59;66.33;98896.63;5109870;28;20204;-64
2022/04/01 05:15:05;;;;;;;18.63;13.53;;;;;;;7.63;66.03;98897.13;5109666;28;20218;-66
2022/04/01 05:17:36;;;;;;;17.67;12.80;;;;;;;7.65;65.76;98901.22;5109775;28;20547;-63
2022/04/01 05:20:11;;;;;;;15.93;12.93;;;;;;;7.64;65.80;98898.78;5108537;28;20207;-63
2022/04/01 05:22:48;;;;;;;17.63;12.40;;;;;;;7.57;65.92;98909.16;5108748;28;20322;-64
2022/04/01 05:25:19;;;;;;;16.10;12.70;;;;;;;7.52;66.93;98908.84;5109233;28;20611;-65
2022/04/01 05:27:49;;;;;;;17.30;13.50;;;;;;;7.63;66.39;98910.31;5106336;28;20321;-65
2022/04/01 05:30:20;;;;;;;17.97;12.37;;;;;;;7.61;66.20;98914.91;5088191;28;20192;-65
2022/04/01 05:32:59;;;;;;;17.50;12.93;;;;;;;7.56;66.11;98916.22;5088910;28;20270;-65
2022/04/01 05:35:31;;;;;;;15.93;11.83;;;;;;;7.56;65.74;98908.31;5101403;28;20230;-65
2022/04/01 05:38:00;;;;;;;14.90;11.80;;;;;;;7.54;66.40;98917.41;5068012;28;1156839;-65
2022/04/01 05:40:29;;;;;;;13.97;11.27;;;;;;;7.62;65.84;98922.69;5109378;28;20337;-63
2022/04/01 05:42:58;;;;;;;16.47;11.33;;;;;;;7.57;66.32;98924.97;5109260;28;20257;-65
2022/04/01 05:45:27;;;;;;;16.27;11.80;;;;;;;7.61;66.10;98926.31;5102705;28;20238;-64
2022/04/01 05:47:56;;;;;;;13.73;10.23;;;;;;;7.40;65.34;98931.25;5088772;28;20219;-64
2022/04/01 05:50:28;;;;;;;13.03;10.10;;;;;;;7.38;66.00;98935.88;5088786;28;20763;-65
2022/04/01 05:52:56;;;;;;;15.90;11.60;;;;;;;7.52;66.18;98927.28;5127053;27;20194;-65
2022/04/01 05:55:26;;;;;;;12.37;10.03;;;;;;;7.51;65.52;98938.81;5112007;28;20243;-64
2022/04/01 05:57:55;;;;;;;13.17;10.50;;;;;;;7.45;65.74;98942.13;5109904;28;20275;-65
2022/04/01 06:00:23;;;;;;;12.80;9.90;;;;;;;7.45;65.81;98942.13;5108495;28;20398;-65
2022/04/01 06:03:20;;;;;;;13.37;10.77;;;;;;;7.51;65.77;98944.94;5109101;28;20231;-64
2022/04/01 06:05:58;;;;;;;13.33;10.40;;;;;;;7.56;65.26;98934.69;5109169;28;20211;-64
2022/04/01 06:08:44;;;;;;;12.47;10.07;;;;;;;7.61;65.71;98941.31;5108884;28;20226;-64
2022/04/01 06:11:20;;;;;;;12.93;9.90;;;;;;;7.59;65.84;98941.47;5109097;28;20242;-64
2022/04/01 06:14:01;;;;;;;14.27;10.37;;;;;;;7.56;66.00;98941.81;5108631;28;20195;-64
2022/04/01 06:16:35;;;;;;;14.03;9.70;;;;;;;7.60;65.63;98952.84;5109382;28;20619;-64
2022/04/01 06:19:14;;;;;;;12.70;9.90;;;;;;;7.56;65.74;98949.72;5108832;28;20824;-64
2022/04/01 06:21:46;;;;;;;11.13;9.13;;;;;;;7.44;65.62;98961.59;5109428;28;20209;-64
2022/04/01 06:24:24;;;;;;;11.90;9.33;;;;;;;7.34;66.18;98961.75;5109225;28;20186;-64
2022/04/01 06:26:59;;;;;;;12.67;9.63;;;;;;;7.40;65.80;98957.63;5108963;28;20206;-64
2022/04/01 06:29:35;;;;;;;11.97;8.80;;;;;;;7.50;65.65;98966.19;5092171;28;20205;-65
2022/04/01 06:32:05;;;;;;;11.37;8.97;;;;;;;7.55;65.75;98963.91;5098634;28;20674;-65
2022/04/01 06:35:00;;;;;;;11.00;8.80;;;;;;;7.62;65.47;98975.44;5109021;28;20202;-64
2022/04/01 06:37:30;;;;;;;11.63;8.33;;;;;;;7.48;65.97;98968.16;5108803;28;20472;-65
2022/04/01 06:40:05;;;;;;;12.13;8.30;;;;;;;7.55;64.91;98972.63;5109212;28;20708;-64
2022/04/01 06:42:37;;;;;;;11.73;8.70;;;;;;;7.60;64.53;98982.69;5101380;28;20235;-67
2022/04/01 06:45:06;;;;;;;9.63;7.83;;;;;;;6.82;67.05;98979.59;5105660;28;20237;-64
2022/04/01 06:47:34;;;;;;;13.57;8.30;;;;;;;7.08;66.86;98982.97;5092775;28;20210;-64
2022/04/01 06:50:02;;;;;;;11.23;8.40;;;;;;;7.17;65.92;98982.00;5109385;28;20722;-64
2022/04/01 06:52:31;;;;;;;12.07;8.87;;;;;;;7.33;65.41;98988.28;5101837;28;20211;-64
2022/04/01 06:54:58;;;;;;;13.93;9.10;;;;;;;7.28;65.39;98987.94;5108605;28;20294;-64
2022/04/01 06:57:26;;;;;;;14.50;9.63;;;;;;;7.38;65.73;98994.72;5108561;28;20230;-65
2022/04/01 06:59:56;;;;;;;18.20;10.10;;;;;;;7.14;66.44;98997.28;5108463;28;20241;-63
2022/04/01 07:02:24;;;;;;;12.63;9.57;;;;;;;7.32;65.72;99005.06;5115277;28;20219;-64
2022/04/01 07:04:55;;;;;;;13.33;9.70;;;;;;;7.36;65.40;98995.88;5109448;28;20203;-64
2022/04/01 07:07:23;;;;;;;14.33;9.40;;;;;;;7.43;65.72;98994.22;5108587;28;20278;-64
2022/04/01 07:09:51;;;;;;;14.10;10.03;;;;;;;7.40;65.51;98999.81;5091847;28;20209;-65
2022/04/01 07:12:18;;;;;;;16.33;10.03;;;;;;;7.37;65.15;99005.44;5091271;28;20207;-64
2022/04/01 07:14:46;;;;;;;15.43;9.87;;;;;;;7.24;66.12;99005.06;5091314;28;20216;-64
2022/04/01 07:17:15;;;;;;;11.60;8.60;;;;;;;7.34;65.65;99000.47;5099779;28;20229;-64
2022/04/01 07:19:45;;;;;;;15.07;9.60;;;;;;;7.18;66.53;99007.38;5111695;28;20306;-64
2022/04/01 07:22:14;;;;;;;12.37;9.53;;;;;;;7.31;66.50;99013.97;5112002;28;20238;-64
2022/04/01 07:24:41;;;;;;;12.97;8.83;;;;;;;7.37;66.22;99008.06;5113552;27;20212;-65
2022/04/01 07:27:10;;;;;;;16.40;9.80;;;;;;;7.01;68.34;99013.59;5114857;27;20646;-64
2022/04/01 07:29:38;;;;;;;14.73;9.07;;;;;;;7.17;67.29;99018.06;5111196;28;20221;-64
2022/04/01 07:34:58;;;;;;;13.10;8.57;;;;;;;7.24;66.84;99018.25;5111140;28;20589;-63
2022/04/01 07:37:28;;;;;;;13.23;8.30;;;;;;;7.17;66.66;99024.16;5111958;28;20246;-65
2022/04/01 07:40:15;;;;;;;13.63;8.90;;;;;;;7.30;66.96;99036.88;5111610;28;20662;-64
2022/04/01 07:42:43;;;;;;;14.30;8.67;;;;;;;7.32;66.52;99034.06;5111469;28;20226;-64
2022/04/01 07:45:12;;;;;;;13.20;9.20;;;;;;;7.18;67.35;99031.09;5113973;27;20216;-65
2022/04/01 07:47:42;;;;;;;14.77;9.67;;;;;;;7.23;67.42;99042.94;5101339;28;20215;-65
2022/04/01 07:50:12;;;;;;;12.30;9.20;;;;;;;7.21;67.15;99042.31;5090303;28;20207;-64
2022/04/01 07:52:42;;;;;;;19.47;10.03;;;;;;;7.22;67.85;99044.75;5091121;28;20211;-65
2022/04/01 07:55:13;;;;;;;15.50;9.80;;;;;;;7.32;67.02;99036.72;5091528;28;20210;-64
2022/04/01 07:57:41;;;;;;;12.13;8.43;;;;;;;6.96;67.54;99041.38;5093563;28;20244;-65
2022/04/01 08:00:14;;;;;;;18.43;8.63;;;;;;;7.18;67.72;99046.09;5110862;28;20195;-64
2022/04/01 08:02:42;;;;;;;14.73;9.97;;;;;;;6.98;66.54;99044.69;5128202;27;20204;-64
2022/04/01 08:05:14;;;;;;;16.67;9.60;;;;;;;7.10;66.74;99049.53;5132252;27;20209;-65
2022/04/01 08:07:48;;;;;;;13.70;8.87;;;;;;;7.28;66.06;99049.41;5130335;27;20187;-64
2022/04/01 08:10:16;;;;;;;15.93;8.97;;;;;;;7.23;65.53;99051.69;5111158;28;20216;-64
2022/04/01 08:12:44;;;;;;;16.23;9.10;;;;;;;6.89;65.70;99050.94;5110773;28;20676;-63
2022/04/01 08:15:13;;;;;;;11.63;8.53;;;;;;;7.12;65.44;99058.09;5110742;28;20302;-63
2022/04/01 08:17:40;;;;;;;14.57;9.10;;;;;;;7.24;64.25;99055.16;5111459;28;20238;-64
2022/04/01 08:20:11;;;;;;;12.97;8.93;;;;;;;7.05;64.79;99059.72;5109556;28;20242;-64
2022/04/01 08:22:41;;;;;;;13.13;8.90;;;;;;;6.92;64.82;99059.34;5110997;28;20198;-65
2022/04/01 08:25:17;;;;;;;15.70;9.10;;;;;;;7.22;63.25;99062.38;5111119;28;20209;-65
2022/04/01 08:27:45;;;;;;;13.20;8.10;;;;;;;7.18;63.02;99060.09;5109052;28;20562;-64
2022/04/01 08:30:13;;;;;;;15.23;9.43;;;;;;;7.17;63.39;99066.34;5090895;28;20212;-64
2022/04/01 08:32:41;;;;;;;15.00;9.07;;;;;;;7.11;63.32;99072.28;5110885;28;20203;-63
2022/04/01 08:35:20;;;;;;;11.33;8.00;;;;;;;7.18;62.54;99075.09;5111523;28;20199;-67
2022/04/01 08:37:49;;;;;;;16.20;8.47;;;;;;;6.63;63.72;99074.69;5112602;27;20265;-64
2022/04/01 08:40:17;;;;;;;14.40;8.80;;;;;;;6.99;63.35;99080.63;5109045;28;20628;-65
2022/04/01 08:42:48;;;;;;;11.20;8.43;;;;;;;6.84;63.10;99090.09;5109838;28;20573;-64
2022/04/01 08:45:17;;;;;;;14.70;9.27;;;;;;;6.78;63.71;99091.53;5090827;28;20719;-64
2022/04/01 08:47:45;;;;;;;14.00;8.80;;;;;;;6.78;63.45;99091.53;5090545;28;20740;-64
2022/04/01 08:50:12;;;;;;;13.13;7.97;;;;;;;7.02;62.61;99091.69;5088605;28;20207;-64
2022/04/01 08:52:40;;;;;;;14.50;8.43;;;;;;;7.02;61.94;99091.69;5090417;28;20631;-64
2022/04/01 08:55:12;;;;;;;16.00;7.97;;;;;;;7.01;61.43;99102.38;5089874;28;20807;-63
2022/04/01 08:57:42;;;;;;;9.87;6.83;;;;;;;6.95;60.96;99110.91;5092406;28;20243;-64
2022/04/01 09:00:38;;;;;;;11.50;7.60;;;;;;;6.81;61.70;99101.78;5109959;27;20202;-64
2022/04/01 09:03:08;;;;;;;10.03;7.13;;;;;;;6.92;61.31;99114.69;5112654;27;20212;-64
2022/04/01 09:05:37;;;;;;;12.47;7.40;;;;;;;6.99;60.88;99105.16;5110325;28;20556;-65
2022/04/01 09:08:24;;;;;;;12.53;7.43;;;;;;;7.05;60.95;99115.06;5109717;28;20198;-65
2022/04/01 09:10:56;;;;;;;14.50;7.40;;;;;;;6.98;61.01;99119.31;5109882;28;20210;-64
2022/04/01 09:13:25;;;;;;;12.53;7.40;;;;;;;6.67;61.41;99119.00;5110665;28;20277;-65
2022/04/01 09:15:54;;;;;;;14.33;7.50;;;;;;;6.82;61.28;99113.97;5110395;28;20206;-65
2022/04/01 09:18:39;;;;;;;12.03;6.90;;;;;;;6.96;60.76;99131.00;5110135;28;20240;-65
2022/04/01 09:21:07;;;;;;;15.23;6.37;;;;;;;7.06;60.25;99136.97;5108068;28;20284;-64
2022/04/01 09:23:36;;;;;;;13.43;6.90;;;;;;;6.98;59.88;99135.13;5109696;28;20222;-64
2022/04/01 09:26:22;;;;;;;11.63;6.93;;;;;;;7.03;59.76;99137.31;5107610;28;20216;-64
2022/04/01 09:28:53;;;;;;;14.93;7.23;;;;;;;6.99;59.57;99130.69;5104129;28;20197;-65
2022/04/01 09:31:33;;;;;;;10.73;6.80;;;;;;;6.75;60.26;99134.03;5089188;28;20289;-66
2022/04/01 09:34:11;;;;;;;10.10;7.03;;;;;;;6.82;60.35;99145.59;5089823;28;20194;-65
2022/04/01 09:36:41;;;;;;;12.27;7.40;;;;;;;6.87;59.95;99142.47;5089414;28;20666;-64
2022/04/01 09:39:11;;;;;;;10.20;6.70;;;;;;;7.04;59.87;99145.03;5091376;28;20235;-66
2022/04/01 09:41:42;;;;;;;10.77;6.47;;;;;;;6.97;59.55;99154.56;5095965;28;20574;-63
2022/04/01 09:44:27;;;;;;;10.73;7.03;;;;;;;6.89;60.61;99146.63;5110856;28;20210;-65
2022/04/01 09:46:57;;;;;;;11.47;6.47;;;;;;;6.96;59.91;99158.16;5089257;28;20293;-65
2022/04/01 09:49:34;;;;;;;14.17;7.00;;;;;;;6.83;60.56;99152.50;5088702;28;20331;-64
2022/04/01 09:52:07;;;;;;;12.07;7.37;;;;;;;6.92;60.57;99146.31;5089507;28;20604;-65
2022/04/01 09:54:45;;;;;;;8.87;6.40;;;;;;;6.89;60.19;99151.88;5089146;28;20239;-64
2022/04/01 09:57:14;;;;;;;12.23;7.07;;;;;;;6.99;59.11;99146.50;5089920;28;20564;-65
2022/04/01 09:59:43;;;;;;;12.07;6.90;;;;;;;6.32;60.13;99154.16;5108232;28;20209;-65
2022/04/01 10:02:10;;;;;;;14.17;7.67;;;;;;;6.80;59.85;99151.00;5109730;28;20301;-64
2022/04/01 10:04:38;;;;;;;12.43;6.93;;;;;;;6.91;59.70;99160.47;5109675;28;20230;-65
2022/04/01 10:07:07;;;;;;;9.17;6.60;;;;;;;6.71;60.20;99159.00;5125734;28;20217;-64
2022/04/01 10:09:37;;;;;;;9.67;6.47;;;;;;;6.99;59.25;99163.13;5112749;28;20231;-65
2022/04/01 10:12:37;;;;;;;10.63;6.83;;;;;;;6.96;58.92;99165.25;5129214;28;20206;-65
2022/04/01 10:15:07;;;;;;;9.13;6.50;;;;;;;6.58;59.14;99167.34;5129538;28;20207;-65
2022/04/01 10:17:55;;;;;;;9.57;6.53;;;;;;;6.60;59.90;99170.63;5116393;28;20195;-66
2022/04/01 10:20:29;;;;;;;12.33;7.30;;;;;;;7.01;59.06;99163.00;5108835;28;20236;-65
2022/04/01 10:22:57;;;;;;;10.50;6.43;;;;;;;6.79;58.21;99172.25;5109442;28;20575;-65
2022/04/01 10:25:32;;;;;;;9.60;6.00;;;;;;;6.69;59.33;99171.50;5109419;28;20218;-65
2022/04/01 10:28:18;;;;;;;9.77;6.00;;;;;;;6.88;58.82;99163.41;5095693;28;20205;-65
2022/04/01 10:30:53;;;;;;;15.10;7.00;;;;;;;6.90;58.37;99169.34;5109065;28;20543;-65
2022/04/01 10:33:23;;;;;;;8.50;6.40;;;;;;;6.86;58.74;99170.63;5109346;28;20244;-65
2022/04/01 10:35:51;;;;;;;10.53;6.97;;;;;;;6.69;58.78;99184.69;5108454;28;20262;-64
2022/04/01 10:38:21;;;;;;;12.60;7.07;;;;;;;6.79;58.98;99188.88;5089401;28;20229;-64
2022/04/01 10:40:50;;;;;;;9.07;6.73;;;;;;;6.94;58.37;99177.78;5088619;28;20648;-64
2022/04/01 10:43:22;;;;;;;9.07;6.67;;;;;;;6.77;58.97;99184.75;5092375;27;20212;-64
2022/04/01 10:46:05;;;;;;;11.57;7.60;;;;;;;6.90;57.91;99185.16;5116070;27;20550;-65
2022/04/01 10:51:41;;;;;;;13.40;7.00;;;;;;;6.89;58.77;99194.03;5090579;28;20215;-63
2022/04/01 10:54:42;;;;;;;10.23;6.70;;;;;;;6.93;58.67;99203.31;5092158;28;20225;-65
2022/04/01 10:57:11;;;;;;;9.93;5.60;;;;;;;6.79;58.58;99198.59;5074115;28;20305;-65
2022/04/01 10:59:50;;;;;;;9.67;6.13;;;;;;;6.40;59.18;99204.25;5111927;28;20194;-64
2022/04/01 11:02:19;;;;;;;9.97;6.23;;;;;;;6.67;58.69;99202.47;5113102;28;20610;-64
2022/04/01 11:04:50;;;;;;;11.90;6.33;;;;;;;6.89;58.21;99201.13;5112777;28;20222;-63
2022/04/01 11:07:33;;;;;;;9.10;6.40;;;;;;;6.95;58.22;99203.16;5113057;28;20191;-65
2022/04/01 11:10:04;;;;;;;10.33;6.77;;;;;;;6.93;58.06;99213.84;5111890;28;20252;-65
2022/04/01 11:12:38;;;;;;;8.77;6.43;;;;;;;6.85;58.14;99219.06;5112250;28;20225;-64
2022/04/01 11:15:31;;;;;;;8.10;5.77;;;;;;;6.80;58.64;99226.59;5116264;27;20203;-65
2022/04/01 11:18:10;;;;;;;9.30;6.43;;;;;;;6.71;59.22;99222.25;5112517;28;20222;-65
2022/04/01 11:20:56;;;;;;;10.23;6.03;;;;;;;6.69;59.15;99221.56;5111509;28;20206;-65
2022/04/01 11:23:24;;;;;;;10.90;6.03;;;;;;;6.92;59.14;99224.53;5112449;28;20225;-65
2022/04/01 11:25:58;;;;;;;9.47;6.13;;;;;;;6.96;58.48;99228.50;5111874;28;20236;-65
2022/04/01 11:28:28;;;;;;;12.30;6.93;;;;;;;6.91;59.08;99236.88;5104042;28;20218;-64
2022/04/01 11:31:11;;;;;;;10.00;6.83;;;;;;;6.93;59.06;99234.94;5091981;28;20237;-65
2022/04/01 11:33:40;;;;;;;9.77;5.23;;;;;;;7.02;59.64;99239.28;5098421;28;20474;-65
2022/04/01 11:36:08;;;;;;;11.10;6.60;;;;;;;7.03;60.04;99238.28;5101145;27;20286;-65
2022/04/01 11:38:37;;;;;;;8.37;5.57;;;;;;;6.56;60.65;99250.94;5111663;28;20234;-65
2022/04/01 11:41:06;;;;;;;11.30;6.03;;;;;;;6.87;60.37;99253.97;5111864;28;20644;-64
2022/04/01 11:43:35;;;;;;;8.53;5.50;;;;;;;6.95;60.02;99251.38;5112023;28;20292;-64
2022/04/01 11:46:06;;;;;;;9.23;6.53;;;;;;;6.78;60.86;99250.44;5112141;28;20226;-65
2022/04/01 11:48:37;;;;;;;8.27;5.77;;;;;;;6.68;61.59;99246.28;5111488;28;20209;-65
2022/04/01 11:51:14;;;;;;;8.47;5.70;;;;;;;6.90;61.82;99244.94;5112251;28;20215;-65
2022/04/01 11:53:45;;;;;;;9.87;6.70;;;;;;;6.87;62.54;99248.69;5111763;28;20297;-65
2022/04/01 11:56:14;;;;;;;9.87;6.00;;;;;;;6.55;63.49;99253.72;5111402;28;20238;-65
2022/04/01 11:58:55;;;;;;;10.83;6.67;;;;;;;6.53;64.21;99250.41;5111067;28;20207;-65
2022/04/01 12:01:25;;;;;;;12.67;6.90;;;;;;;6.75;64.06;99258.69;5111753;28;20206;-65